Terminal Aerodrome Forecast
Issued by NWS

Home | Current Version | Previous Version | Text Only | Print | Product List | Glossary On
Versions: 1 2 3 4 5 6 7 8 9 10 11 12 13 14 15 16 17
230
FTUS41 KBGM 252335
TAFITH
TAF
KITH 252335Z 2600/2624 23005KT P6SM BKN060
      TEMPO 2602/2604 4SM TSRA OVC025CB
     FM260400 23005KT P6SM OVC040
     FM260800 28005KT P6SM OVC015
     FM261300 31006KT P6SM BKN020
     FM261500 31007KT P6SM SCT070=

USA.gov is the U.S. government's official web portal to all federal, state and local government web resources and services.